Relevés horaires Oron (Suisse)


Relevés horaires à Oron - Lundi 20 Août 2018
Heure UTC1 Température [°C] Vent [km/h] Hum. [%] Pres.4 [hPa] Visi. [Km] Nébu. [octa] Préc.5 [mm] Cond.
2m. Res. Ros. Dir.2 Vit. Moy. Raf.3
23:00 18.6 18.6 12.0 NNE 11.1 -- -- 65 850 -- -- -- --
22:00 18.9 18.7 12.2 N 18.5 -- -- 65 850 -- -- -- --
21:00 19.5 19.5 12.1 N 16.7 -- 29.6 62 850(1.1/3h) -- -- -- --
20:00 21.2 21.2 11.6 N 22.2 -- -- 54 850 -- -- -- --
19:00 22.3 22.3 9.7 ENE 13.0 -- -- 45 850 -- -- -- --
18:00 23.0 23.0 10.9 NE 14.8 -- 35.2 46 850(-0.2/3h) -- -- 0/12h
--
17:00 24.4 24.4 11.5 NE 14.8 -- -- 44 850 -- -- -- --
16:00 25.4 25.4 13.0 NNE 13.0 -- -- 46 850 -- -- -- --
15:00 25.5 25.5 11.9 NNO 20.4 -- 33.3 43 850(-1.3/3h) -- -- -- --
14:00 25.4 25.4 13.1 N 13.0 -- -- 46 850 -- -- -- --
13:00 24.6 24.6 13.7 N 16.7 -- -- 51 850 -- -- -- --
12:00 24.1 24.1 14.7 N 18.5 -- 29.6 56 850(-0.4/3h) -- -- 0/6h
--
11:00 23.5 23.5 15.0 N 14.8 -- -- 59 850 -- -- -- --
10:00 22.5 22.5 14.0 NNO 16.7 -- -- 59 850 -- -- -- --
09:00 21.3 21.3 13.3 NNO 11.1 -- 16.7 60 850(0.0/3h) -- -- -- --
08:00 19.8 19.8 14.6 NO 5.6 -- -- 72 850 -- -- -- --
07:00 18.7 18.7 14.4 E 3.7 -- -- 76 850 -- -- -- --
06:00 16.3 16.3 14.1 E 5.6 -- 13.0 87 850(0.2/3h) -- -- 0/12h
0/24h
--
05:00 16.0 16.0 13.5 E 7.4 -- -- 85 850 -- -- -- --
04:00 16.3 16.3 13.9 E 5.6 -- -- 86 850 -- -- -- --
03:00 15.9 15.8 13.7 E 9.3 -- 13.0 87 850(-0.5/3h) -- -- -- --
02:00 17.1 17.1 14.1 ENE 9.3 -- -- 83 850 -- -- -- --
01:00 18.2 18.2 13.3 NNE 9.3 -- -- 73 850 -- -- -- --
00:00 18.7 18.7 13.3 NE 7.4 -- 24.1 71 850(-0.2/3h) -- -- 0/6h
--

1 Coordinated Universal Time. Actuellement il est 12:00 locale et 10:00 UTC.

2 Le vent souffle depuis la direction indiquée vers la direction oposée.

3 Les rafales max. sont disponible 40 min après l'heure du relevé.

4 Pour les stations d'altitude (plus de 600m) le géopotentiel du niveau le plus proche de la pression obligatoire est indiqué.

5 Les stations disposant d'un diffuseur peuvent indiquer "trace". Cela signifie que des précipitations ont touchés le sol mais que la quantité est inférieure à 0.1 mm.

Récapitulatif de la journée
Température [°C] Vent [km/h] Ensoleillement4 [h] Precipitations totale5 [mm] Pression [Hpa]
Min1 Max.2 Moy.3 Max. Min Max.
15.4 25.6 0 35.2 12 h 24 min 0 850.0 850.0

1 Température minimale relevée entre 18:00 UTC la veille et 18:00 UTC le jour donné.

2 Température maximale relevée entre 06:00 UTC le jour donné et 06:00 UTC le lendemain.

3 Vent moyen de la journée basé sur les relevés horaires.

4 Ensoleillement en heures relevé entre 06:00 UTC la veille et 06:00 UTC le jour donné.

5 Précipitations totales tombées entre 06:00 UTC la jour donné et 06:00 UTC le lendemain.

Graphiques horaires